Time;durP1;ratioP1;P1;durP2;ratioP2;P2;SDS_P1;SDS_P2;PMS_P1;PMS_P2;Temp;Humidity;BMP_temperature;BMP_pressure;BME280_temperature;BME280_humidity;BME280_pressure;Samples;Min_cycle;Max_cycle;Signal;HPM_P1;HPM_P2
2021/12/17 00:05:06;;;;;;;18.65;11.90;;;6.70;99.90;;;;;;4987679;28;20096;-58
2021/12/17 00:07:35;;;;;;;18.10;11.32;;;6.70;99.90;;;;;;4987995;28;20022;-58
2021/12/17 00:10:03;;;;;;;19.15;11.85;;;6.70;99.90;;;;;;4986071;28;20464;-60
2021/12/17 00:12:29;;;;;;;17.63;11.13;;;6.70;99.90;;;;;;4985389;28;20034;-59
2021/12/17 00:14:56;;;;;;;;;;;6.70;99.90;;;;;;4987971;28;20018;-60
2021/12/17 00:17:27;;;;;;;20.55;11.73;;;6.70;99.90;;;;;;4987640;28;20287;-58
2021/12/17 00:50:12;;;;;;;13.88;9.98;;;6.80;99.90;;;;;;4988882;28;20502;-58
2021/12/17 00:52:39;;;;;;;15.88;9.13;;;6.80;99.90;;;;;;4986580;28;20498;-58
2021/12/17 00:55:07;;;;;;;13.13;8.52;;;6.90;99.90;;;;;;4987859;28;20039;-58
2021/12/17 00:57:39;;;;;;;18.13;10.40;;;6.90;99.90;;;;;;4984453;28;20030;-58
2021/12/17 01:00:11;;;;;;;16.55;9.40;;;6.90;99.90;;;;;;4982872;28;20041;-58
2021/12/17 01:02:38;;;;;;;18.25;10.18;;;6.90;99.90;;;;;;4987824;28;20026;-58
2021/12/17 01:05:08;;;;;;;15.85;9.05;;;6.90;99.90;;;;;;4986621;28;20511;-59
2021/12/17 01:07:36;;;;;;;18.10;9.68;;;6.90;99.90;;;;;;4987795;28;20367;-58
2021/12/17 01:10:06;;;;;;;22.10;9.75;;;6.90;99.90;;;;;;4985406;28;20036;-59
2021/12/17 01:12:31;;;;;;;15.80;9.15;;;7.00;99.90;;;;;;4985218;28;20019;-59
2021/12/17 01:14:57;;;;;;;;;;;7.00;99.90;;;;;;4986319;28;20174;-60
2021/12/17 01:17:24;;;;;;;13.80;8.25;;;7.00;99.90;;;;;;4982484;28;20270;-58
2021/12/17 01:25:41;;;;;;;14.23;9.60;;;7.10;99.90;;;;;;4987444;28;20041;-60
2021/12/17 01:36:23;;;;;;;15.65;8.80;;;7.20;99.90;;;;;;4985839;28;20045;-59
2021/12/17 01:39:55;;;;;;;;;;;7.20;99.90;;;;;;4988650;28;20453;-57
2021/12/17 01:42:02;;;;;;;16.30;8.07;;;7.20;99.90;;;;;;4985675;28;20371;-58
2021/12/17 01:44:28;;;;;;;15.52;7.05;;;7.30;99.90;;;;;;4987311;28;20030;-58
2021/12/17 01:46:54;;;;;;;;;;;7.30;99.90;;;;;;4986103;28;20409;-58
2021/12/17 02:00:10;;;;;;;14.70;7.47;;;7.30;99.90;;;;;;4987894;28;20023;-58
2021/12/17 02:02:44;;;;;;;17.20;9.05;;;7.30;99.90;;;;;;4984726;28;20050;-59
2021/12/17 02:05:10;;;;;;;15.05;8.00;;;7.30;99.90;;;;;;4984699;28;20038;-58
2021/12/17 02:07:36;;;;;;;16.98;9.35;;;7.30;99.90;;;;;;4983462;28;20026;-58
2021/12/17 02:31:34;;;;;;;13.93;8.25;;;7.40;99.90;;;;;;4985154;28;20066;-58
2021/12/17 02:34:03;;;;;;;;;;;7.40;99.90;;;;;;4985655;28;20019;-58
2021/12/17 02:36:32;;;;;;;14.70;8.00;;;7.50;99.90;;;;;;4984719;28;19931;-59
2021/12/17 02:39:21;;;;;;;19.38;9.43;;;7.50;99.90;;;;;;5008561;22;20520;-70
2021/12/17 02:47:14;;;;;;;18.67;10.05;;;7.50;99.90;;;;;;5016580;28;20072;-70
2021/12/17 02:49:41;;;;;;;;;;;7.50;99.90;;;;;;5017994;28;20030;-70
2021/12/17 02:52:07;;;;;;;14.32;9.20;;;7.60;99.90;;;;;;5012205;28;19917;-70
2021/12/17 02:54:34;;;;;;;;;;;7.60;99.90;;;;;;5014201;28;20075;-70
2021/12/17 02:57:00;;;;;;;15.63;8.77;;;7.60;99.90;;;;;;5015805;28;20027;-70
2021/12/17 02:59:27;;;;;;;22.25;9.32;;;7.60;99.90;;;;;;5017478;28;20025;-70
2021/12/17 03:01:55;;;;;;;19.30;10.45;;;7.60;99.90;;;;;;5015159;28;20033;-70
2021/12/17 03:04:21;;;;;;;17.05;10.27;;;7.60;99.90;;;;;;5013026;28;20026;-69
2021/12/17 03:06:47;;;;;;;;;;;7.60;99.90;;;;;;5021244;28;20342;-69
2021/12/17 03:09:13;;;;;;;18.75;10.77;;;7.60;99.90;;;;;;5018689;28;20055;-69
2021/12/17 03:11:38;;;;;;;22.02;12.10;;;7.60;99.90;;;;;;5018329;28;20083;-69
2021/12/17 03:14:05;;;;;;;21.50;12.30;;;7.60;99.90;;;;;;5020767;28;20107;-70
2021/12/17 03:16:36;;;;;;;20.70;11.50;;;7.60;99.90;;;;;;5020762;28;20108;-69
2021/12/17 03:19:09;;;;;;;20.83;10.80;;;7.60;99.90;;;;;;5020111;28;20109;-69
2021/12/17 03:24:20;;;;;;;26.85;13.93;;;7.60;99.90;;;;;;5021353;28;20527;-70
2021/12/17 03:26:46;;;;;;;24.10;12.35;;;7.60;99.90;;;;;;5020242;28;20021;-70
2021/12/17 03:29:11;;;;;;;;;;;7.60;99.90;;;;;;5022159;28;20072;-70
2021/12/17 03:31:38;;;;;;;20.73;11.05;;;7.70;99.90;;;;;;5019856;28;19909;-70
2021/12/17 03:34:17;;;;;;;22.70;12.88;;;7.70;99.90;;;;;;5019831;28;20026;-69
2021/12/17 03:36:44;;;;;;;19.65;12.70;;;7.70;99.90;;;;;;5017158;28;20498;-69
2021/12/17 03:39:10;;;;;;;21.88;12.95;;;7.70;99.90;;;;;;5016694;28;20116;-69
2021/12/17 03:41:39;;;;;;;;;;;7.70;99.90;;;;;;5021409;28;20025;-69
2021/12/17 03:44:08;;;;;;;22.98;13.23;;;7.60;99.90;;;;;;5016988;28;20391;-69
2021/12/17 03:46:35;;;;;;;19.65;12.52;;;7.70;99.90;;;;;;5021526;28;20033;-69
2021/12/17 03:49:02;;;;;;;18.48;11.38;;;7.70;99.90;;;;;;5019614;28;20040;-69
2021/12/17 03:51:27;;;;;;;21.00;11.25;;;7.60;99.90;;;;;;5020324;28;20017;-69
2021/12/17 03:53:54;;;;;;;;;;;7.60;99.90;;;;;;5024732;28;20095;-69
2021/12/17 03:56:21;;;;;;;22.38;11.23;;;7.70;99.90;;;;;;5019359;28;20360;-69
2021/12/17 03:58:49;;;;;;;18.77;10.57;;;7.70;99.90;;;;;;5020957;28;20155;-69
2021/12/17 04:01:14;;;;;;;23.38;11.80;;;7.70;99.90;;;;;;5016387;28;20028;-69
2021/12/17 04:03:40;;;;;;;;;;;7.70;99.90;;;;;;5020068;28;20404;-69
2021/12/17 04:06:05;;;;;;;20.52;11.45;;;7.70;99.90;;;;;;5019935;28;19909;-69
2021/12/17 04:08:31;;;;;;;;;;;7.70;99.90;;;;;;5019385;28;20108;-69
2021/12/17 04:11:04;;;;;;;21.75;12.25;;;7.70;99.90;;;;;;5017359;28;20002;-70
2021/12/17 04:13:34;;;;;;;24.08;12.93;;;7.70;99.90;;;;;;5021284;28;20018;-69
2021/12/17 04:16:07;;;;;;;28.85;12.02;;;7.70;99.90;;;;;;5018948;28;20404;-69
2021/12/17 04:18:35;;;;;;;24.48;12.00;;;7.70;99.90;;;;;;5021235;28;20071;-69
2021/12/17 04:21:03;;;;;;;19.17;11.88;;;7.70;99.90;;;;;;5017479;28;20489;-69
2021/12/17 04:23:31;;;;;;;21.33;11.35;;;7.70;99.90;;;;;;5017899;28;20025;-69
2021/12/17 04:25:57;;;;;;;19.88;11.15;;;7.70;99.90;;;;;;5020445;28;20053;-69
2021/12/17 04:28:23;;;;;;;19.40;12.43;;;7.70;99.90;;;;;;5016368;28;20084;-69
2021/12/17 04:30:48;;;;;;;;;;;7.70;99.90;;;;;;5018781;28;20029;-69
2021/12/17 04:33:14;;;;;;;23.35;11.50;;;7.70;99.90;;;;;;5019416;28;20069;-69
2021/12/17 04:35:40;;;;;;;;;;;7.70;99.90;;;;;;5019010;28;20644;-69
2021/12/17 04:38:08;;;;;;;19.25;10.55;;;7.70;99.90;;;;;;5018361;28;20042;-69
2021/12/17 04:40:36;;;;;;;20.75;11.35;;;7.70;99.90;;;;;;5018539;28;20026;-69
2021/12/17 04:43:16;;;;;;;18.58;11.77;;;7.70;99.90;;;;;;5019124;28;20026;-69
2021/12/17 04:46:34;;;;;;;20.40;10.45;;;7.70;99.90;;;;;;5016005;28;20026;-69
2021/12/17 04:59:26;;;;;;;21.70;11.27;;;7.70;99.90;;;;;;5018627;28;20396;-69
2021/12/17 05:01:52;;;;;;;;;;;7.70;99.90;;;;;;5014034;28;20021;-69
2021/12/17 05:04:19;;;;;;;24.25;11.52;;;7.80;99.90;;;;;;5016632;28;20403;-69
2021/12/17 05:06:44;;;;;;;22.48;13.23;;;7.70;99.90;;;;;;5016026;28;20108;-69
2021/12/17 05:09:22;;;;;;;;;;;7.80;99.90;;;;;;5018042;28;20096;-69
2021/12/17 05:20:01;;;;;;;24.95;12.27;;;7.80;99.90;;;;;;5014476;28;20124;-69
2021/12/17 05:22:28;;;;;;;25.60;14.18;;;7.80;99.90;;;;;;5013794;28;20072;-69
2021/12/17 05:24:54;;;;;;;25.60;12.95;;;7.80;99.90;;;;;;5017303;28;20449;-69
2021/12/17 05:27:19;;;;;;;;;;;7.80;99.90;;;;;;5016324;28;20060;-71
2021/12/17 05:29:45;;;;;;;22.30;13.15;;;7.80;99.90;;;;;;5017653;28;19913;-70
2021/12/17 05:32:11;;;;;;;;;;;7.80;99.90;;;;;;5016263;28;20029;-70
2021/12/17 05:34:37;;;;;;;22.42;12.27;;;7.80;99.90;;;;;;5015353;28;19909;-72
2021/12/17 05:37:03;;;;;;;24.25;13.48;;;7.80;99.90;;;;;;5014943;28;20173;-70
2021/12/17 05:39:29;;;;;;;19.45;11.98;;;7.80;99.90;;;;;;5018150;28;20048;-71
2021/12/17 05:41:54;;;;;;;;;;;7.80;99.90;;;;;;5016668;28;20389;-70
2021/12/17 05:44:21;;;;;;;21.65;11.38;;;7.80;99.90;;;;;;5009812;28;20372;-70
2021/12/17 05:46:49;;;;;;;27.48;13.68;;;7.80;99.90;;;;;;5013900;28;20040;-71
2021/12/17 05:49:20;;;;;;;27.70;12.90;;;7.80;99.90;;;;;;5016260;28;20030;-69
2021/12/17 05:51:46;;;;;;;22.40;13.25;;;7.80;99.90;;;;;;5012511;28;20098;-70
2021/12/17 05:54:11;;;;;;;;;;;7.90;99.90;;;;;;5018247;28;20024;-70
2021/12/17 05:56:38;;;;;;;26.75;13.05;;;7.90;99.90;;;;;;5016460;28;19909;-71
2021/12/17 05:59:03;;;;;;;31.48;14.60;;;7.80;99.90;;;;;;5018280;28;20029;-70
2021/12/17 06:01:29;;;;;;;;;;;7.80;99.90;;;;;;5012693;28;20036;-70
2021/12/17 06:03:54;;;;;;;27.05;14.02;;;7.80;99.90;;;;;;5015728;28;20335;-69
2021/12/17 06:06:26;;;;;;;;;;;7.80;99.90;;;;;;5017198;28;20148;-70
2021/12/17 06:08:52;;;;;;;24.20;12.15;;;7.80;99.90;;;;;;5015827;28;19943;-70
2021/12/17 06:11:18;;;;;;;;;;;7.70;99.90;;;;;;5012808;28;20117;-70
2021/12/17 06:13:43;;;;;;;26.48;11.98;;;7.70;99.90;;;;;;5014931;28;19913;-70
2021/12/17 06:16:09;;;;;;;;;;;7.70;99.90;;;;;;5016518;28;20076;-70
2021/12/17 06:18:34;;;;;;;23.23;12.45;;;7.70;99.90;;;;;;5016268;28;19913;-70
2021/12/17 06:20:59;;;;;;;;;;;7.70;99.90;;;;;;5015684;28;20045;-70
2021/12/17 06:23:25;;;;;;;24.83;12.77;;;7.70;99.90;;;;;;5015550;28;19966;-70
2021/12/17 06:25:50;;;;;;;41.25;15.90;;;7.70;99.90;;;;;;5014888;28;20029;-70
2021/12/17 06:28:16;;;;;;;;;;;7.70;99.90;;;;;;5018723;28;20038;-71
2021/12/17 06:30:42;;;;;;;22.48;11.77;;;7.70;99.90;;;;;;5014798;28;19991;-70
2021/12/17 06:33:08;;;;;;;27.15;12.88;;;7.70;99.90;;;;;;5005676;28;20041;-70
2021/12/17 06:35:34;;;;;;;;;;;7.70;99.90;;;;;;5015695;28;20026;-70
2021/12/17 06:37:59;;;;;;;23.25;12.50;;;7.70;99.90;;;;;;5016954;28;20538;-70
2021/12/17 06:40:25;;;;;;;29.83;13.73;;;7.70;99.90;;;;;;5022986;28;20022;-70
2021/12/17 06:42:50;;;;;;;;;;;7.70;99.90;;;;;;5023253;28;20459;-70
2021/12/17 06:45:37;;;;;;;29.85;13.27;;;7.70;99.90;;;;;;5020535;28;19959;-70
2021/12/17 06:48:03;;;;;;;29.15;13.50;;;7.60;99.90;;;;;;5020967;28;20030;-70
2021/12/17 07:06:55;;;;;;;25.80;12.07;;;7.60;99.90;;;;;;5020404;28;20040;-70
2021/12/17 07:22:30;;;;;;;27.08;11.65;;;7.60;99.90;;;;;;5020322;28;20551;-72
2021/12/17 07:33:15;;;;;;;24.83;11.10;;;7.60;99.90;;;;;;5021125;28;20079;-72
2021/12/17 07:35:45;;;;;;;25.13;12.40;;;7.60;99.90;;;;;;5015857;28;20031;-73
2021/12/17 07:40:55;;;;;;;25.02;12.15;;;7.60;99.90;;;;;;5019471;28;20041;-72
2021/12/17 07:43:41;;;;;;;20.38;11.23;;;7.60;99.90;;;;;;5020629;28;20432;-73
2021/12/17 07:46:11;;;;;;;24.90;10.85;;;7.60;99.90;;;;;;5021132;28;20044;-73
2021/12/17 07:48:38;;;;;;;19.83;10.55;;;7.60;99.90;;;;;;5020252;28;20435;-71
2021/12/17 07:51:08;;;;;;;24.85;10.20;;;7.60;99.90;;;;;;5020943;28;20013;-72
2021/12/17 07:53:35;;;;;;;30.48;13.50;;;7.60;99.90;;;;;;5018451;28;20025;-73
2021/12/17 07:56:02;;;;;;;24.38;11.45;;;7.60;99.90;;;;;;5017876;28;20033;-73
2021/12/17 07:58:29;;;;;;;20.48;10.70;;;7.60;99.90;;;;;;5020087;28;20049;-73
2021/12/17 08:00:55;;;;;;;26.48;10.98;;;7.60;99.90;;;;;;5017488;28;20036;-72
2021/12/17 08:03:21;;;;;;;;;;;7.60;99.90;;;;;;5018847;28;20022;-76
2021/12/17 08:05:47;;;;;;;21.42;10.07;;;7.60;99.90;;;;;;5016421;28;20008;-75
2021/12/17 08:08:12;;;;;;;18.17;9.20;;;7.60;99.90;;;;;;5012701;28;20480;-75
2021/12/17 08:10:39;;;;;;;14.93;8.57;;;7.60;99.90;;;;;;5014053;28;20079;-75
2021/12/17 08:13:07;;;;;;;20.58;8.82;;;7.60;99.90;;;;;;5013304;28;20052;-74
2021/12/17 08:15:40;;;;;;;13.65;7.78;;;7.60;99.90;;;;;;5014863;28;20025;-73
2021/12/17 08:18:30;;;;;;;16.27;8.60;;;7.50;99.90;;;;;;5006989;28;20037;-71
2021/12/17 08:26:28;;;;;;;19.20;8.38;;;7.50;99.90;;;;;;5001387;28;20034;-73
2021/12/17 08:31:26;;;;;;;17.15;8.10;;;7.50;99.90;;;;;;5020007;28;20021;-73
2021/12/17 08:33:52;;;;;;;18.20;7.47;;;7.50;99.90;;;;;;5016162;28;20112;-72
2021/12/17 08:36:18;;;;;;;;;;;7.50;99.90;;;;;;5018083;28;20109;-73
2021/12/17 08:38:44;;;;;;;11.65;5.35;;;7.50;99.90;;;;;;5018362;28;19957;-73
2021/12/17 08:41:10;;;;;;;10.60;5.65;;;7.60;99.90;;;;;;5011786;28;20105;-73
2021/12/17 08:43:36;;;;;;;;;;;7.50;99.90;;;;;;5017013;28;20033;-72
2021/12/17 08:46:01;;;;;;;10.98;6.15;;;7.50;99.90;;;;;;5016482;28;19918;-73
2021/12/17 08:48:27;;;;;;;;;;;7.60;99.90;;;;;;5019044;28;20044;-73
2021/12/17 08:50:53;;;;;;;12.77;6.05;;;7.60;99.90;;;;;;5034390;28;19960;-73
2021/12/17 08:53:18;;;;;;;;;;;7.60;99.90;;;;;;5016790;28;20586;-72
2021/12/17 08:55:45;;;;;;;11.60;5.90;;;7.60;99.90;;;;;;5020197;28;19909;-72
2021/12/17 08:58:13;;;;;;;12.43;6.00;;;7.60;99.90;;;;;;5018551;28;20477;-72
2021/12/17 09:00:43;;;;;;;5.68;3.90;;;7.60;99.90;;;;;;5016947;28;20500;-74
2021/12/17 09:03:10;;;;;;;12.45;5.55;;;7.60;99.90;;;;;;5015317;28;20113;-74
2021/12/17 09:05:37;;;;;;;7.82;4.85;;;7.60;99.90;;;;;;5013758;28;20056;-75
2021/12/17 09:08:04;;;;;;;9.05;5.65;;;7.60;99.90;;;;;;5019554;28;20018;-74
2021/12/17 09:10:29;;;;;;;7.10;3.78;;;7.60;99.90;;;;;;5018696;28;20480;-75
2021/12/17 09:12:55;;;;;;;;;;;7.60;99.90;;;;;;5027366;28;20029;-73
2021/12/17 09:15:21;;;;;;;6.30;3.45;;;7.60;99.90;;;;;;5017114;28;20389;-72
2021/12/17 09:17:46;;;;;;;8.75;3.78;;;7.50;99.90;;;;;;5018765;28;20025;-73
2021/12/17 09:20:12;;;;;;;7.28;4.35;;;7.60;99.90;;;;;;5024380;28;20033;-73
2021/12/17 09:22:37;;;;;;;6.70;3.60;;;7.60;99.90;;;;;;5019000;28;20148;-73
2021/12/17 09:25:04;;;;;;;;;;;7.60;99.90;;;;;;5016230;28;20065;-74
2021/12/17 09:27:29;;;;;;;5.72;2.72;;;7.60;99.90;;;;;;5018604;28;19912;-74
2021/12/17 09:29:54;;;;;;;;;;;7.60;99.90;;;;;;5019145;28;20058;-74
2021/12/17 09:32:21;;;;;;;9.23;2.50;;;7.60;99.90;;;;;;5018278;28;19970;-74
2021/12/17 09:34:47;;;;;;;7.32;3.63;;;7.60;99.90;;;;;;5019347;28;20474;-73
2021/12/17 09:37:13;;;;;;;;;;;7.60;99.90;;;;;;5019524;28;20027;-73
2021/12/17 09:39:39;;;;;;;7.05;3.58;;;7.60;99.90;;;;;;5017945;28;19916;-74
2021/12/17 09:42:05;;;;;;;15.70;2.75;;;7.60;99.90;;;;;;5018746;28;20072;-74
2021/12/17 09:44:30;;;;;;;;;;;7.70;99.90;;;;;;5019689;28;20033;-73
2021/12/17 09:46:57;;;;;;;7.80;3.58;;;7.60;99.90;;;;;;5018909;28;20004;-74
2021/12/17 09:49:23;;;;;;;5.32;3.45;;;7.60;99.90;;;;;;5018182;28;20032;-73
2021/12/17 09:51:49;;;;;;;5.47;3.00;;;7.60;99.90;;;;;;5017836;28;20029;-73
2021/12/17 09:54:17;;;;;;;5.78;2.88;;;7.60;99.90;;;;;;5018211;28;20417;-72
2021/12/17 09:56:43;;;;;;;8.45;3.00;;;7.60;99.90;;;;;;5019361;28;20703;-74
2021/12/17 09:59:10;;;;;;;6.65;3.85;;;7.60;99.90;;;;;;5017316;28;20029;-73
2021/12/17 10:01:37;;;;;;;7.57;3.47;;;7.60;99.90;;;;;;5018362;28;20036;-73
2021/12/17 10:04:19;;;;;;;5.97;2.65;;;7.60;99.90;;;;;;5018242;28;20081;-72
2021/12/17 10:06:47;;;;;;;8.80;4.43;;;7.70;99.90;;;;;;5018408;28;20040;-76
2021/12/17 10:09:15;;;;;;;7.32;3.38;;;7.70;99.90;;;;;;5017705;28;20481;-76
2021/12/17 10:12:00;;;;;;;6.45;3.33;;;7.70;99.90;;;;;;5018704;28;20061;-75
2021/12/17 10:14:26;;;;;;;7.03;3.33;;;7.70;99.90;;;;;;5017632;28;20022;-76
2021/12/17 10:16:51;;;;;;;;;;;7.70;99.90;;;;;;5018997;28;20037;-75
2021/12/17 10:19:41;;;;;;;6.53;3.42;;;7.70;99.90;;;;;;5017404;28;19910;-75
2021/12/17 10:22:12;;;;;;;7.40;3.40;;;7.70;99.90;;;;;;5017158;28;20031;-74
2021/12/17 10:24:43;;;;;;;8.25;3.83;;;7.70;99.90;;;;;;5018435;28;20531;-75
2021/12/17 10:27:25;;;;;;;7.55;3.78;;;7.80;99.90;;;;;;5017723;28;20065;-73
2021/12/17 10:29:51;;;;;;;7.13;2.92;;;7.80;99.90;;;;;;5015334;28;20033;-73
2021/12/17 10:32:21;;;;;;;7.30;3.22;;;7.90;99.90;;;;;;5017157;28;20066;-73
2021/12/17 10:35:10;;;;;;;8.82;3.55;;;7.90;99.90;;;;;;5018354;28;20039;-74
2021/12/17 10:37:42;;;;;;;4.95;2.78;;;7.90;99.90;;;;;;5018493;28;20075;-74
2021/12/17 10:40:34;;;;;;;5.35;3.42;;;7.90;99.90;;;;;;5014991;28;20045;-75
2021/12/17 10:43:15;;;;;;;4.32;2.30;;;7.90;99.90;;;;;;5017518;28;20408;-75
2021/12/17 10:45:56;;;;;;;11.45;2.90;;;8.00;99.90;;;;;;5018423;28;20484;-74
2021/12/17 10:51:02;;;;;;;6.22;2.20;;;8.00;99.90;;;;;;5018210;28;20037;-73
2021/12/17 10:53:28;;;;;;;5.80;2.10;;;8.00;99.90;;;;;;5017653;28;20072;-74
2021/12/17 10:55:55;;;;;;;7.25;2.72;;;7.90;99.90;;;;;;5017161;28;20032;-74
2021/12/17 10:58:21;;;;;;;4.55;2.25;;;8.00;99.90;;;;;;5016625;28;20560;-74
2021/12/17 11:00:53;;;;;;;5.15;2.22;;;8.00;99.90;;;;;;5016401;28;20034;-74
2021/12/17 11:03:18;;;;;;;4.97;2.28;;;7.90;99.90;;;;;;5017126;28;20029;-74
2021/12/17 11:05:44;;;;;;;;;;;7.90;99.90;;;;;;5018798;28;20029;-74
2021/12/17 11:08:33;;;;;;;11.68;2.33;;;7.90;99.90;;;;;;5015497;28;20399;-71
2021/12/17 11:11:08;;;;;;;5.75;2.03;;;7.90;99.90;;;;;;5015116;28;20028;-73
2021/12/17 11:13:34;;;;;;;7.07;2.10;;;7.90;99.90;;;;;;5016898;28;20040;-75
2021/12/17 11:16:00;;;;;;;4.38;2.35;;;7.90;99.90;;;;;;5015759;28;20104;-74
2021/12/17 11:18:26;;;;;;;;;;;8.00;99.90;;;;;;5018164;28;20042;-73
2021/12/17 11:20:55;;;;;;;3.60;2.40;;;7.90;99.90;;;;;;5016903;28;19925;-74
2021/12/17 11:23:22;;;;;;;4.97;2.17;;;7.90;99.90;;;;;;5015082;28;20033;-72
2021/12/17 11:25:50;;;;;;;6.20;2.63;;;7.90;99.90;;;;;;5018780;28;20052;-73
2021/12/17 11:28:16;;;;;;;4.93;2.35;;;7.80;99.90;;;;;;5015139;28;20025;-73
2021/12/17 11:30:44;;;;;;;4.70;2.33;;;7.80;99.90;;;;;;5017949;28;20022;-73
2021/12/17 11:33:11;;;;;;;8.05;4.30;;;7.80;99.90;;;;;;5018400;28;20109;-74
2021/12/17 11:35:42;;;;;;;6.07;3.40;;;7.70;99.90;;;;;;5020587;28;20037;-73
2021/12/17 11:38:19;;;;;;;5.68;3.65;;;7.70;99.90;;;;;;5017755;28;20064;-73
2021/12/17 11:41:03;;;;;;;4.65;3.08;;;7.70;99.90;;;;;;5020845;28;20554;-74
2021/12/17 11:43:59;;;;;;;6.95;3.80;;;7.70;99.90;;;;;;5018146;28;20034;-72
2021/12/17 11:46:33;;;;;;;6.10;3.25;;;7.60;99.90;;;;;;5016516;28;20085;-77
2021/12/17 11:49:05;;;;;;;9.50;3.28;;;7.50;99.90;;;;;;5015323;28;20037;-76
2021/12/17 11:51:33;;;;;;;6.93;3.47;;;7.50;99.90;;;;;;5014954;28;20030;-75
2021/12/17 11:54:09;;;;;;;4.53;2.80;;;7.60;99.90;;;;;;5020517;28;20116;-75
2021/12/17 11:56:48;;;;;;;6.82;4.82;;;7.50;99.90;;;;;;5020784;28;20097;-78
2021/12/17 11:59:23;;;;;;;7.20;3.20;;;7.50;99.90;;;;;;5016218;28;20030;-75
2021/12/17 12:01:57;;;;;;;5.93;3.35;;;7.50;99.90;;;;;;5019671;28;20164;-74
2021/12/17 12:04:38;;;;;;;5.30;3.22;;;7.50;99.90;;;;;;5019232;28;20137;-74
2021/12/17 12:07:08;;;;;;;4.22;2.25;;;7.50;99.90;;;;;;5015763;28;20064;-77
2021/12/17 12:09:56;;;;;;;5.80;2.85;;;7.50;99.90;;;;;;5018782;28;20021;-73
2021/12/17 12:12:43;;;;;;;7.60;3.35;;;7.40;99.90;;;;;;5013885;28;20033;-71
2021/12/17 12:15:22;;;;;;;5.57;2.30;;;7.50;99.90;;;;;;5020204;28;20505;-73
2021/12/17 12:17:57;;;;;;;4.78;1.92;;;7.40;99.90;;;;;;5017030;28;20488;-73
2021/12/17 12:20:43;;;;;;;5.82;2.72;;;7.50;99.90;;;;;;5018683;28;20033;-74
2021/12/17 12:23:16;;;;;;;6.95;2.35;;;7.40;99.90;;;;;;5006263;28;20614;-73
2021/12/17 12:25:42;;;;;;;4.90;2.50;;;7.40;99.90;;;;;;5014879;28;20042;-74
2021/12/17 12:28:07;;;;;;;;;;;7.40;99.90;;;;;;5018326;28;20390;-74
2021/12/17 12:30:38;;;;;;;4.90;2.05;;;7.40;99.90;;;;;;5019697;28;19913;-74
2021/12/17 12:33:08;;;;;;;6.60;2.08;;;7.40;99.90;;;;;;5014220;28;20045;-74
2021/12/17 12:35:34;;;;;;;6.45;2.38;;;7.40;99.90;;;;;;5016773;28;20535;-74
2021/12/17 12:38:17;;;;;;;5.45;1.90;;;7.30;99.90;;;;;;5016594;28;20168;-74
2021/12/17 12:40:51;;;;;;;3.03;1.75;;;7.30;99.90;;;;;;5018970;28;20396;-74
2021/12/17 12:43:46;;;;;;;5.05;1.85;;;7.30;99.90;;;;;;5016262;28;20501;-74
2021/12/17 12:46:11;;;;;;;2.88;1.63;;;7.40;99.90;;;;;;5018132;28;20033;-74
2021/12/17 12:48:41;;;;;;;;;;;7.30;99.90;;;;;;5019492;28;20505;-74
2021/12/17 12:51:19;;;;;;;4.70;1.73;;;7.30;99.90;;;;;;5018057;28;20857;-74
2021/12/17 12:53:47;;;;;;;3.38;1.42;;;7.40;99.90;;;;;;5016665;28;20500;-75
2021/12/17 12:56:18;;;;;;;2.65;1.90;;;7.40;99.90;;;;;;5017110;28;20253;-75
2021/12/17 12:58:48;;;;;;;2.10;1.30;;;7.40;99.90;;;;;;5016679;28;20030;-75
2021/12/17 13:01:15;;;;;;;2.58;0.93;;;7.40;99.90;;;;;;5017100;28;20065;-75
2021/12/17 13:03:41;;;;;;;3.17;1.52;;;7.40;99.90;;;;;;5018179;28;20116;-75
2021/12/17 13:06:09;;;;;;;2.95;1.13;;;7.50;99.90;;;;;;5017584;28;20018;-75
2021/12/17 13:08:35;;;;;;;2.53;1.00;;;7.50;99.90;;;;;;5013341;28;20153;-75
2021/12/17 13:11:02;;;;;;;;;;;7.50;99.90;;;;;;5016523;28;20116;-75
2021/12/17 13:13:35;;;;;;;2.25;1.10;;;7.50;99.90;;;;;;5014412;28;20350;-75
2021/12/17 13:16:22;;;;;;;5.13;1.17;;;7.50;99.90;;;;;;5016459;28;20025;-75
2021/12/17 13:21:58;;;;;;;4.22;1.70;;;7.50;99.90;;;;;;5015989;28;20137;-72
2021/12/17 13:24:26;;;;;;;2.35;1.15;;;7.50;99.90;;;;;;5012553;28;20521;-73
2021/12/17 13:27:10;;;;;;;5.38;2.25;;;7.50;99.90;;;;;;5016146;28;20456;-71
2021/12/17 13:29:38;;;;;;;2.97;1.42;;;7.60;99.90;;;;;;5013470;28;20018;-74
2021/12/17 13:32:11;;;;;;;2.33;1.38;;;7.60;99.90;;;;;;5018024;28;20029;-72
2021/12/17 13:34:52;;;;;;;7.20;1.73;;;7.70;99.90;;;;;;5016537;28;20112;-71
2021/12/17 13:37:27;;;;;;;9.27;2.58;;;7.70;99.90;;;;;;5008423;28;20505;-71
2021/12/17 13:40:09;;;;;;;16.65;5.03;;;7.70;99.90;;;;;;5016241;28;20401;-72
2021/12/17 13:42:38;;;;;;;6.95;2.15;;;7.80;99.90;;;;;;5018234;28;20029;-72
2021/12/17 13:45:09;;;;;;;27.13;4.35;;;7.80;99.90;;;;;;5015591;28;20029;-71
2021/12/17 13:47:40;;;;;;;18.35;3.08;;;7.80;99.90;;;;;;5017236;28;20121;-72
2021/12/17 13:50:10;;;;;;;20.55;3.25;;;7.80;99.90;;;;;;5015218;28;20056;-72
2021/12/17 13:52:53;;;;;;;19.35;3.58;;;7.80;99.90;;;;;;5018202;28;20047;-72
2021/12/17 13:55:22;;;;;;;29.70;7.18;;;7.80;99.90;;;;;;5016590;28;20497;-72
2021/12/17 13:57:48;;;;;;;8.82;3.60;;;7.90;99.90;;;;;;5018610;28;20088;-72
2021/12/17 14:00:32;;;;;;;;;;;7.90;99.90;;;;;;5018213;28;20033;-72
2021/12/17 14:02:59;;;;;;;6.90;2.38;;;8.00;99.90;;;;;;5018729;28;19905;-72
2021/12/17 14:05:29;;;;;;;6.07;2.42;;;7.90;99.90;;;;;;5016754;28;20080;-72
2021/12/17 14:07:59;;;;;;;4.07;2.35;;;7.90;99.90;;;;;;5018058;28;20025;-73
2021/12/17 14:10:32;;;;;;;5.85;3.10;;;7.90;99.90;;;;;;5018448;28;20056;-72
2021/12/17 14:12:59;;;;;;;4.07;2.55;;;7.90;99.90;;;;;;5018428;28;20022;-72
2021/12/17 14:15:27;;;;;;;;;;;7.80;99.90;;;;;;5019001;28;20385;-72
2021/12/17 14:17:59;;;;;;;5.93;2.25;;;7.80;99.90;;;;;;5017915;28;19916;-72
2021/12/17 14:20:27;;;;;;;4.43;2.28;;;7.70;99.90;;;;;;5019173;28;20037;-72
2021/12/17 14:23:02;;;;;;;7.82;3.55;;;7.60;99.90;;;;;;5017919;28;20034;-72
2021/12/17 14:25:41;;;;;;;6.63;3.08;;;7.60;99.90;;;;;;5018993;28;20057;-72
2021/12/17 14:28:14;;;;;;;5.75;3.25;;;7.50;99.90;;;;;;5019229;28;20022;-72
2021/12/17 14:31:02;;;;;;;8.88;4.60;;;7.50;99.90;;;;;;5019426;28;20018;-73
2021/12/17 14:33:57;;;;;;;8.10;3.90;;;7.50;99.90;;;;;;5018183;28;20768;-72
2021/12/17 14:36:39;;;;;;;8.27;4.55;;;7.50;99.90;;;;;;5019109;28;20060;-72
2021/12/17 14:39:16;;;;;;;10.32;4.13;;;7.50;99.90;;;;;;5016299;28;20025;-72
2021/12/17 14:47:06;;;;;;;12.27;5.63;;;7.50;99.90;;;;;;5017617;28;20056;-72
2021/12/17 15:00:49;;;;;;;7.40;5.03;;;7.50;99.90;;;;;;5020347;28;20109;-69
2021/12/17 15:03:28;;;;;;;9.45;4.63;;;7.50;99.90;;;;;;5021074;28;20450;-69
2021/12/17 15:05:56;;;;;;;9.93;4.63;;;7.50;99.90;;;;;;5022096;28;20021;-69
2021/12/17 15:08:23;;;;;;;11.80;6.05;;;7.50;99.90;;;;;;5021717;28;20033;-69
2021/12/17 15:10:48;;;;;;;10.43;5.30;;;7.50;99.90;;;;;;5021927;28;20137;-69
2021/12/17 15:13:14;;;;;;;;;;;7.60;99.90;;;;;;5021206;28;20516;-69
2021/12/17 15:15:41;;;;;;;11.48;4.68;;;7.60;99.90;;;;;;5021232;28;19915;-69
2021/12/17 15:18:14;;;;;;;13.13;5.35;;;7.70;99.90;;;;;;5021354;28;20034;-69
2021/12/17 15:20:44;;;;;;;17.27;5.93;;;7.70;99.90;;;;;;5020429;28;20037;-68
2021/12/17 15:23:11;;;;;;;10.88;4.80;;;7.70;99.90;;;;;;5026914;28;20044;-68
2021/12/17 15:25:39;;;;;;;12.10;4.80;;;7.70;99.90;;;;;;5021912;28;20022;-68
2021/12/17 15:28:05;;;;;;;8.95;4.40;;;7.70;99.90;;;;;;5016468;28;20025;-68
2021/12/17 15:30:34;;;;;;;14.13;5.88;;;7.70;99.90;;;;;;5017693;28;20034;-67
2021/12/17 15:33:00;;;;;;;8.98;4.60;;;7.60;99.90;;;;;;5017406;28;20120;-70
2021/12/17 15:35:27;;;;;;;;;;;7.60;99.90;;;;;;5014799;28;20576;-67
2021/12/17 15:37:54;;;;;;;11.73;5.63;;;7.60;99.90;;;;;;5018456;28;20368;-67
2021/12/17 15:40:21;;;;;;;12.65;5.78;;;7.60;99.90;;;;;;5019270;28;20096;-67
2021/12/17 15:42:48;;;;;;;11.77;5.65;;;7.60;99.90;;;;;;5019571;28;20096;-67
2021/12/17 15:45:15;;;;;;;10.38;5.18;;;7.60;99.90;;;;;;5017865;28;20503;-67
2021/12/17 15:47:40;;;;;;;10.60;5.50;;;7.60;99.90;;;;;;5016912;28;20041;-67
2021/12/17 15:50:07;;;;;;;;;;;7.70;99.90;;;;;;5018361;28;20034;-68
2021/12/17 15:52:50;;;;;;;12.68;5.55;;;7.70;99.90;;;;;;5016597;28;19909;-68
2021/12/17 15:55:19;;;;;;;9.90;5.40;;;7.60;99.90;;;;;;5024968;28;20476;-67
2021/12/17 15:57:45;;;;;;;13.52;6.15;;;7.60;99.90;;;;;;5018119;28;20036;-67
2021/12/17 16:00:13;;;;;;;11.88;4.90;;;7.70;99.90;;;;;;5016480;28;21747;-67
2021/12/17 16:02:41;;;;;;;14.50;6.95;;;7.70;99.90;;;;;;5017798;28;20061;-68
2021/12/17 16:05:09;;;;;;;12.93;7.45;;;7.70;99.90;;;;;;5018804;28;20381;-67
2021/12/17 16:07:36;;;;;;;13.57;6.88;;;7.70;99.90;;;;;;5016067;28;20030;-67
2021/12/17 16:18:28;;;;;;;16.25;6.32;;;7.70;99.90;;;;;;5019444;28;20524;-68
2021/12/17 16:21:01;;;;;;;12.98;6.45;;;7.70;99.90;;;;;;5018639;28;20484;-68
2021/12/17 16:23:37;;;;;;;13.30;6.65;;;7.70;99.90;;;;;;5016083;28;20036;-68